Aeroporto :
LOGIN :

Iscrizione | Disclaimer

   EN    FR    IT 

 










Sommario :    VFR   VFR Marginale   IFR   IFR Intensivo   IFR Molto Intensivo
Visibilità : 
Base nubi : 
>= 8 km
>= 3000ft
5 / 8 km
1000 / 3000 ft
1500m / 5 km
500 / 1000 ft
800 / 1500m
200 / 500 ft
< 800m
< 200 ft
Simboli :   Temporali  Nebbia  Neve Forte  Precipitazioni Forti  Vento > 20 kt
SIGMETs :   Varie  Temporali  Ghiacco  Turbolenza  Onda orograficha  Ceneri Vulcaniche






- Altitudine del aeroporto : 1521 ft
- Codice IATA : NCY


LFLP - Annecy

ULTIMO METAR :
  • 271400Z AUTO 15011KT 7000 -RA FEW020 OVC027 03/02 Q1005 TEMPO 4000 RA BECMG 22012KT

METARs OBSOLETI :
  • 271330Z AUTO 16009KT 7000 -RA FEW019 OVC026 02/01 Q1005 TEMPO 4000 RA BECMG 22012KT
  • 271300Z AUTO 16008KT 130V190 9000 -RA SCT014 OVC028 02/01 Q1005 TEMPO 4000 RA BKN008
  • 271230Z AUTO 16009KT 130V190 5000 -SNRA BR BKN012 OVC025 02/01 Q1006 TEMPO RA BECMG BKN020
  • 271200Z AUTO 17011KT 140V200 5000 -SNRA BR OVC010 02/01 Q1006 TEMPO RA BECMG BKN020
  • 271130Z AUTO 23005KT 200V270 3500 SN BR BKN013 OVC018 01/00 Q1007

TAF AMD TAF LFLP
Valido dal 27 a 12 ore il 28 a 09 ore UTC


271225Z 2712/2809 22012KT 9999 RA BKN020
TEMPO 2712/2714 3000 SNRA BKN008
TEMPO 2714/2716 4000 RA
TEMPO 2716/2720 4000 SHRA SCT020TCU
BECMG 2718/2720 30010KT
BECMG 2802/2804 VRB02KT CAVOK



MetMap, La meteo Aeronautica in un colpo d'occhio ! - Copyright ORBIFLY Dicembre 2007 - Disclaimer

ORBIFLY MET'MAP TEAM :

Programmazione e sviluppo : Alexandra Zaïnal
Concezione : Baudouin d'Aumeries
Aiuto per la programmazione : Marc-Olivier Méhu
Supporto tecnico e logistico : Manuel Goepfert
Aiuto per la traduzione : Arnaldo La Scala

Contatto : metmap@orbifly.com




FONTI E CREDITI :

   NOAA